Time;durP1;ratioP1;P1;durP2;ratioP2;P2;SDS_P1;SDS_P2;PMS_P1;PMS_P2;Temp;Humidity;BMP_temperature;BMP_pressure;BME280_temperature;BME280_humidity;BME280_pressure;Samples;Min_cycle;Max_cycle;Signal;HPM_P1;HPM_P2
2024/04/11 00:00:09;;;;;;;10.57;5.47;;;;;;;12.73;65.51;100678.03;5488598;26;20009;-76
2024/04/11 00:02:34;;;;;;;8.38;5.45;;;;;;;12.58;65.90;100661.44;5487875;26;20002;-77
2024/04/11 00:04:59;;;;;;;7.65;4.78;;;;;;;12.27;67.01;100663.09;5488181;26;19998;-76
2024/04/11 00:07:25;;;;;;;9.10;5.55;;;;;;;12.25;68.40;100659.81;5487468;26;20002;-76
2024/04/11 00:09:50;;;;;;;11.30;5.57;;;;;;;12.27;69.50;100679.16;5488038;26;20013;-77
2024/04/11 00:12:16;;;;;;;10.15;5.10;;;;;;;12.29;68.40;100677.06;5487947;26;20012;-76
2024/04/11 00:14:45;;;;;;;8.80;5.20;;;;;;;12.17;68.96;100670.78;5488361;26;19998;-76
2024/04/11 00:17:11;;;;;;;8.73;5.13;;;;;;;12.13;68.56;100666.88;5487592;26;20002;-77
2024/04/11 00:19:37;;;;;;;9.93;5.32;;;;;;;12.06;68.75;100667.75;5486337;26;19998;-76
2024/04/11 00:22:02;;;;;;;8.57;6.30;;;;;;;11.79;69.73;100667.03;5487809;26;20012;-76
2024/04/11 00:24:28;;;;;;;11.00;6.22;;;;;;;11.58;70.89;100681.47;5487414;26;20002;-76
2024/04/11 00:26:53;;;;;;;11.20;6.65;;;;;;;11.59;70.84;100667.09;5486964;26;20015;-76
2024/04/11 00:29:19;;;;;;;11.02;6.15;;;;;;;10.52;71.88;100686.91;5487719;26;20005;-75
2024/04/11 00:31:44;;;;;;;12.85;7.35;;;;;;;10.29;73.77;100681.91;5487355;26;20002;-78
2024/04/11 00:34:13;;;;;;;12.02;6.32;;;;;;;10.82;73.30;100682.00;5487062;26;20006;-76
2024/04/11 00:36:44;;;;;;;9.95;6.72;;;;;;;10.50;73.32;100686.28;5487010;26;20091;-76
2024/04/11 00:39:20;;;;;;;10.35;6.53;;;;;;;10.63;73.37;100688.97;5485838;26;20479;-76
2024/04/11 00:41:49;;;;;;;9.50;6.25;;;;;;;10.76;74.04;100677.47;5487594;26;20013;-77
2024/04/11 00:44:18;;;;;;;9.85;5.75;;;;;;;10.98;73.72;100664.75;5487566;26;19998;-76
2024/04/11 00:46:51;;;;;;;8.27;4.72;;;;;;;11.24;72.90;100683.41;5484859;26;20428;-76
2024/04/11 00:49:18;;;;;;;8.90;5.25;;;;;;;11.14;73.14;100680.34;5487324;26;20002;-76
2024/04/11 00:51:44;;;;;;;8.60;5.28;;;;;;;10.72;73.44;100661.06;5487402;26;20026;-76
2024/04/11 00:54:10;;;;;;;11.80;4.97;;;;;;;10.75;74.68;100676.66;5487146;26;20327;-76
2024/04/11 00:56:36;;;;;;;9.88;4.93;;;;;;;10.30;76.91;100673.75;5486512;26;20002;-76
2024/04/11 00:59:03;;;;;;;12.38;5.38;;;;;;;10.19;78.31;100687.63;5486956;26;20438;-76
2024/04/11 01:01:30;;;;;;;11.20;5.78;;;;;;;10.30;74.30;100692.41;5487117;26;20002;-76
2024/04/11 01:03:59;;;;;;;8.30;4.68;;;;;;;10.42;74.85;100689.94;5487129;26;19998;-76
2024/04/11 01:06:25;;;;;;;11.07;5.95;;;;;;;10.73;71.92;100672.56;5486506;26;20347;-76
2024/04/11 01:08:51;;;;;;;10.43;6.38;;;;;;;10.54;73.27;100666.19;5487197;26;20431;-76
2024/04/11 01:11:16;;;;;;;10.32;5.40;;;;;;;10.00;75.98;100660.72;5486920;26;20010;-76
2024/04/11 01:13:44;;;;;;;9.90;6.00;;;;;;;10.35;74.66;100678.47;5487111;26;19998;-76
2024/04/11 01:16:09;;;;;;;10.05;5.50;;;;;;;10.39;74.59;100667.19;5486438;26;20063;-76
2024/04/11 01:18:35;;;;;;;8.88;5.32;;;;;;;10.13;77.03;100670.59;5486947;26;19998;-76
2024/04/11 01:21:01;;;;;;;7.43;5.22;;;;;;;9.94;78.03;100674.03;5485342;26;20335;-76
2024/04/11 01:23:26;;;;;;;9.15;4.72;;;;;;;9.62;80.53;100687.84;5486798;26;20042;-77
2024/04/11 01:25:51;;;;;;;8.93;6.13;;;;;;;9.51;80.14;100669.72;5487095;26;19995;-76
2024/04/11 01:28:17;;;;;;;8.43;5.13;;;;;;;10.00;77.33;100684.69;5486167;26;20009;-76
2024/04/11 01:30:42;;;;;;;8.57;5.00;;;;;;;10.12;76.06;100679.63;5485310;26;20063;-76
2024/04/11 01:33:14;;;;;;;11.10;5.20;;;;;;;10.20;75.85;100678.63;5485223;26;20047;-77
2024/04/11 01:35:40;;;;;;;8.70;4.85;;;;;;;9.70;78.34;100694.81;5486860;26;20018;-76
2024/04/11 01:38:05;;;;;;;9.35;5.38;;;;;;;9.94;76.69;100690.00;5486163;26;20320;-76
2024/04/11 01:40:36;;;;;;;9.05;5.82;;;;;;;9.98;74.78;100670.75;5486799;26;20439;-76
2024/04/11 01:43:02;;;;;;;9.63;5.55;;;;;;;10.06;74.91;100678.56;5487040;26;20041;-77
2024/04/11 01:45:27;;;;;;;7.15;5.15;;;;;;;10.41;74.75;100683.81;5486441;26;20699;-76
2024/04/11 01:47:53;;;;;;;12.02;6.72;;;;;;;10.05;73.60;100687.59;5485947;26;20002;-76
2024/04/11 01:50:20;;;;;;;12.40;6.60;;;;;;;9.24;77.18;100692.72;5486485;26;20002;-76
2024/04/11 01:52:45;;;;;;;20.88;9.65;;;;;;;8.61;78.62;100684.66;5486768;26;20187;-75
2024/04/11 01:55:11;;;;;;;21.42;10.15;;;;;;;8.95;77.85;100685.72;5486762;26;20593;-76
2024/04/11 01:57:37;;;;;;;20.80;9.73;;;;;;;8.88;78.45;100690.19;5486124;26;20043;-76
2024/04/11 02:00:13;;;;;;;20.98;9.05;;;;;;;8.82;79.16;100678.47;5486071;26;20047;-76
2024/04/11 02:02:49;;;;;;;19.00;10.15;;;;;;;9.18;77.21;100686.31;5486627;26;19995;-77
2024/04/11 02:05:15;;;;;;;16.75;8.05;;;;;;;9.02;78.08;100692.75;5484327;26;20488;-76
2024/04/11 02:07:40;;;;;;;16.50;8.23;;;;;;;8.93;79.96;100693.09;5484102;26;20019;-76
2024/04/11 02:10:06;;;;;;;14.85;8.60;;;;;;;9.38;77.71;100706.94;5486262;26;20002;-77
2024/04/11 02:12:32;;;;;;;13.90;7.90;;;;;;;9.32;77.41;100707.72;5486041;26;20446;-76
2024/04/11 02:14:58;;;;;;;12.43;7.15;;;;;;;8.58;81.68;100696.50;5484438;26;20026;-76
2024/04/11 02:17:24;;;;;;;12.52;6.60;;;;;;;9.10;78.66;100689.13;5485531;26;20017;-76
2024/04/11 02:19:50;;;;;;;12.25;6.03;;;;;;;9.47;76.24;100703.09;5485754;26;20012;-77
2024/04/11 02:22:17;;;;;;;11.20;6.13;;;;;;;9.43;76.37;100685.88;5485993;26;20002;-77
2024/04/11 02:24:42;;;;;;;11.07;5.55;;;;;;;9.30;77.62;100709.75;5484271;26;20031;-77
2024/04/11 02:27:08;;;;;;;16.17;6.35;;;;;;;9.17;77.72;100678.53;5485558;26;20002;-76
2024/04/11 02:29:33;;;;;;;9.23;5.97;;;;;;;9.08;79.70;100704.47;5483397;26;20136;-76
2024/04/11 02:31:58;;;;;;;10.95;6.50;;;;;;;8.85;81.49;100716.16;5485708;26;20030;-76
2024/04/11 02:34:26;;;;;;;8.30;5.60;;;;;;;8.61;81.93;100701.41;5485838;26;20348;-76
2024/04/11 02:36:51;;;;;;;10.40;5.80;;;;;;;9.13;80.55;100710.03;5486441;26;20407;-76
2024/04/11 02:39:17;;;;;;;9.35;5.82;;;;;;;9.06;80.56;100693.19;5485118;26;20014;-76
2024/04/11 02:41:43;;;;;;;9.43;5.25;;;;;;;8.95;82.42;100713.19;5484156;26;20022;-76
2024/04/11 02:44:09;;;;;;;9.65;6.20;;;;;;;9.31;81.05;100725.50;5486252;26;19998;-76
2024/04/11 02:46:39;;;;;;;9.20;5.60;;;;;;;8.99;82.14;100702.97;5487661;26;20065;-76
2024/04/11 02:49:05;;;;;;;11.10;5.90;;;;;;;9.03;83.05;100701.56;5488267;26;20002;-76
2024/04/11 02:51:30;;;;;;;8.30;5.45;;;;;;;9.02;83.85;100705.25;5487628;26;20326;-76
2024/04/11 02:53:57;;;;;;;9.55;5.97;;;;;;;9.28;82.61;100722.44;5489338;26;19998;-76
2024/04/11 02:56:22;;;;;;;8.88;6.15;;;;;;;9.28;81.37;100730.41;5489538;26;20082;-76
2024/04/11 02:58:48;;;;;;;10.65;5.68;;;;;;;9.20;81.76;100726.88;5488593;26;20435;-76
2024/04/11 03:01:15;;;;;;;9.00;5.63;;;;;;;9.31;80.30;100732.69;5488763;26;19998;-76
2024/04/11 03:03:40;;;;;;;10.95;6.10;;;;;;;9.31;79.56;100716.72;5487035;26;20013;-76
2024/04/11 03:06:17;;;;;;;10.55;5.82;;;;;;;8.82;83.89;100745.78;5486835;26;19998;-76
2024/04/11 03:08:42;;;;;;;10.38;6.07;;;;;;;8.68;85.49;100733.38;5487993;26;20006;-76
2024/04/11 03:11:11;;;;;;;9.65;5.82;;;;;;;8.50;85.04;100719.69;5488705;26;20575;-76
2024/04/11 03:13:37;;;;;;;9.20;5.53;;;;;;;8.80;84.89;100745.16;5488654;26;20002;-76
2024/04/11 03:16:03;;;;;;;18.80;6.43;;;;;;;8.74;84.51;100748.56;5488337;26;20002;-76
2024/04/11 03:18:29;;;;;;;10.80;5.60;;;;;;;8.79;84.05;100740.88;5488169;26;20040;-76
2024/04/11 03:20:56;;;;;;;9.48;6.15;;;;;;;8.10;87.88;100751.94;5486673;26;20010;-76
2024/04/11 03:23:22;;;;;;;9.80;5.45;;;;;;;8.29;87.08;100734.56;5488485;26;20005;-78
2024/04/11 03:25:49;;;;;;;11.82;6.07;;;;;;;8.49;85.44;100747.31;5488366;26;20450;-76
2024/04/11 03:28:15;;;;;;;10.27;5.55;;;;;;;8.30;86.29;100746.88;5487760;26;20038;-76
2024/04/11 03:30:41;;;;;;;10.52;5.45;;;;;;;8.42;85.04;100756.03;5486420;26;20074;-76
2024/04/11 03:33:06;;;;;;;11.05;6.38;;;;;;;8.81;81.49;100762.78;5487887;26;20005;-76
2024/04/11 03:35:32;;;;;;;15.30;5.78;;;;;;;8.25;84.51;100759.88;5488098;26;20002;-77
2024/04/11 03:37:58;;;;;;;10.95;5.38;;;;;;;7.85;87.29;100748.78;5488055;26;19998;-76
2024/04/11 03:40:24;;;;;;;15.02;6.15;;;;;;;7.73;87.28;100764.34;5488171;26;19998;-76
2024/04/11 03:42:49;;;;;;;15.23;7.22;;;;;;;8.30;83.79;100768.13;5486687;26;20009;-76
2024/04/11 03:45:22;;;;;;;11.63;5.97;;;;;;;8.27;82.69;100738.44;5488344;26;20070;-76
2024/04/11 03:47:51;;;;;;;10.52;6.10;;;;;;;8.44;83.86;100764.66;5488472;26;20083;-76
2024/04/11 03:50:16;;;;;;;13.07;6.25;;;;;;;8.78;82.32;100770.28;5487847;26;19998;-76
2024/04/11 03:52:42;;;;;;;11.10;5.90;;;;;;;8.41;84.13;100767.66;5488038;26;20017;-76
2024/04/11 03:55:12;;;;;;;14.88;6.65;;;;;;;7.89;89.35;100760.69;5488239;26;19998;-77
2024/04/11 03:57:38;;;;;;;9.50;5.68;;;;;;;8.08;91.08;100785.03;5487785;26;20026;-76
2024/04/11 04:00:07;;;;;;;11.95;5.97;;;;;;;8.22;89.80;100781.53;5487736;26;20013;-76
2024/04/11 04:02:33;;;;;;;16.67;6.63;;;;;;;8.71;85.50;100783.53;5487743;26;20018;-76
2024/04/11 04:04:59;;;;;;;10.13;6.18;;;;;;;8.25;88.14;100779.31;5510211;26;20013;-76
2024/04/11 04:07:28;;;;;;;13.68;6.78;;;;;;;8.13;89.85;100787.94;5488189;26;19998;-76
2024/04/11 04:09:58;;;;;;;12.88;6.93;;;;;;;8.20;88.95;100770.25;5487460;26;20431;-76
2024/04/11 04:12:24;;;;;;;15.13;7.47;;;;;;;8.76;86.48;100794.41;5488021;26;20081;-75
2024/04/11 04:14:53;;;;;;;12.63;7.10;;;;;;;8.84;84.99;100796.13;5487714;26;20002;-77
2024/04/11 04:17:19;;;;;;;13.93;7.05;;;;;;;8.45;88.41;100792.84;5487770;26;20013;-76
2024/04/11 04:19:44;;;;;;;15.13;7.00;;;;;;;8.14;89.45;100773.66;5487604;26;20054;-76
2024/04/11 04:22:13;;;;;;;12.95;6.57;;;;;;;8.51;87.84;100791.28;5487963;26;20756;-76
2024/04/11 04:24:39;;;;;;;19.83;6.50;;;;;;;9.11;83.67;100815.00;5488607;26;20042;-77
2024/04/11 04:27:05;;;;;;;14.48;6.80;;;;;;;8.57;86.64;100805.69;5487388;26;20343;-77
2024/04/11 04:29:31;;;;;;;13.82;6.50;;;;;;;8.56;87.95;100814.66;5485079;26;20451;-77
2024/04/11 04:31:56;;;;;;;12.82;7.15;;;;;;;9.04;84.72;100812.28;5487785;26;20006;-78
2024/04/11 04:34:23;;;;;;;16.70;6.97;;;;;;;9.27;82.76;100811.28;5488108;26;20475;-78
2024/04/11 04:36:49;;;;;;;11.23;5.93;;;;;;;8.73;86.72;100813.41;5487502;26;19998;-78
2024/04/11 04:39:16;;;;;;;13.63;6.65;;;;;;;8.69;88.97;100820.13;5487463;26;20331;-78
2024/04/11 04:41:43;;;;;;;12.43;6.85;;;;;;;8.42;91.13;100814.50;5488339;26;19998;-77
2024/04/11 04:44:08;;;;;;;24.50;7.95;;;;;;;8.54;88.97;100804.22;5488133;26;20017;-77
2024/04/11 04:46:33;;;;;;;13.60;7.53;;;;;;;9.05;85.73;100820.09;5488729;26;20400;-78
2024/04/11 04:49:09;;;;;;;18.83;7.13;;;;;;;8.68;89.44;100812.34;5490163;26;19998;-77
2024/04/11 04:51:36;;;;;;;15.38;7.25;;;;;;;8.74;90.12;100828.34;5499934;26;20009;-78
2024/04/11 04:54:02;;;;;;;17.60;8.10;;;;;;;8.85;88.24;100813.75;5527252;25;20001;-78
2024/04/11 04:56:29;;;;;;;13.45;7.00;;;;;;;9.11;88.30;100837.13;5503117;25;20012;-79
2024/04/11 04:58:55;;;;;;;15.25;7.78;;;;;;;9.49;84.16;100815.53;5515408;26;20450;-78
2024/04/11 05:01:21;;;;;;;15.82;7.95;;;;;;;9.38;86.71;100829.41;5501493;26;20008;-79
2024/04/11 05:03:46;;;;;;;17.38;7.97;;;;;;;9.41;89.37;100844.97;5506661;26;20001;-78
2024/04/11 05:06:13;;;;;;;15.75;7.40;;;;;;;9.55;88.13;100843.25;5509519;26;20009;-79
2024/04/11 05:08:45;;;;;;;10.52;6.70;;;;;;;10.10;84.34;100856.75;5512407;26;20001;-78
2024/04/11 05:11:12;;;;;;;14.52;7.57;;;;;;;10.08;84.23;100861.44;5498388;25;19999;-77
2024/04/11 05:13:38;;;;;;;16.50;7.97;;;;;;;9.99;85.33;100858.09;5514968;26;20008;-78
2024/04/11 05:16:06;;;;;;;12.00;7.88;;;;;;;9.97;86.37;100855.63;5501931;26;20070;-78
2024/04/11 05:18:37;;;;;;;15.98;8.90;;;;;;;10.83;80.79;100860.56;5503529;26;20002;-78
2024/04/11 05:21:04;;;;;;;14.13;8.40;;;;;;;10.90;80.69;100854.44;5491489;26;20013;-79
2024/04/11 05:23:32;;;;;;;13.70;7.38;;;;;;;11.35;77.57;100876.06;5494610;26;20002;-78
2024/04/11 05:25:59;;;;;;;13.63;7.77;;;;;;;11.08;79.30;100868.03;5494880;26;20010;-79
2024/04/11 05:28:34;;;;;;;12.93;7.90;;;;;;;11.10;78.62;100860.63;5494406;26;20573;-78
2024/04/11 05:31:06;;;;;;;10.65;7.35;;;;;;;11.26;77.84;100870.94;5492336;26;20002;-78
2024/04/11 05:33:36;;;;;;;11.50;7.45;;;;;;;11.32;78.80;100873.78;5491003;26;19998;-78
2024/04/11 05:36:06;;;;;;;13.63;8.07;;;;;;;11.54;77.89;100867.22;5489591;26;20006;-78
2024/04/11 05:38:38;;;;;;;13.38;8.07;;;;;;;11.29;80.61;100863.53;5488216;26;19998;-78
2024/04/11 05:41:10;;;;;;;15.27;8.32;;;;;;;11.66;78.19;100880.81;5486833;26;20026;-78
2024/04/11 05:43:38;;;;;;;14.88;7.88;;;;;;;11.66;79.08;100883.47;5487901;26;20002;-79
2024/04/11 05:46:04;;;;;;;12.02;8.75;;;;;;;11.99;78.36;100880.81;5487649;26;20006;-79
2024/04/11 05:48:31;;;;;;;11.23;8.02;;;;;;;12.12;77.36;100871.13;5487261;26;20008;-80
2024/04/11 05:50:58;;;;;;;11.73;7.20;;;;;;;12.27;75.89;100863.66;5486623;26;20001;-79
2024/04/11 05:53:24;;;;;;;14.18;7.90;;;;;;;12.34;77.27;100888.56;5485314;26;20334;-80
2024/04/11 05:55:51;;;;;;;11.27;7.82;;;;;;;12.65;75.98;100881.66;5512567;26;20419;-80
2024/04/11 05:58:19;;;;;;;11.23;7.67;;;;;;;12.58;75.80;100886.19;5491302;26;20435;-80
2024/04/11 06:00:49;;;;;;;12.82;7.13;;;;;;;12.78;76.49;100908.34;5486337;26;20231;-80
2024/04/11 06:03:15;;;;;;;11.90;7.50;;;;;;;13.07;76.37;100885.53;5486734;26;19998;-80
2024/04/11 06:05:41;;;;;;;9.52;7.00;;;;;;;13.25;74.54;100894.72;5486726;26;20033;-79
2024/04/11 06:08:07;;;;;;;10.88;7.18;;;;;;;13.22;74.16;100904.00;5502923;26;20140;-80
2024/04/11 06:10:33;;;;;;;13.27;7.50;;;;;;;13.62;71.94;100917.13;5512849;25;20348;-80
2024/04/11 06:12:58;;;;;;;10.85;7.03;;;;;;;13.71;70.67;100908.81;5486591;26;20043;-80
2024/04/11 06:15:25;;;;;;;10.75;6.88;;;;;;;13.89;69.06;100930.31;5486726;26;20013;-79
2024/04/11 06:17:52;;;;;;;13.10;6.85;;;;;;;13.93;68.85;100939.56;5486294;26;20344;-79
2024/04/11 06:20:21;;;;;;;10.00;5.95;;;;;;;14.20;68.66;100945.53;5488331;26;20034;-80
2024/04/11 06:22:52;;;;;;;10.25;7.10;;;;;;;14.43;66.00;100939.50;5489848;26;20082;-79
2024/04/11 06:25:25;;;;;;;11.48;6.53;;;;;;;14.41;66.69;100936.22;5489626;26;20339;-80
2024/04/11 06:27:52;;;;;;;12.63;6.93;;;;;;;14.27;68.67;100946.28;5489331;26;20005;-79
2024/04/11 06:30:19;;;;;;;13.48;7.63;;;;;;;14.36;69.42;100943.31;5489178;26;20047;-79
2024/04/11 06:32:46;;;;;;;11.85;7.13;;;;;;;14.49;67.08;100929.75;5488988;26;19998;-80
2024/04/11 06:35:13;;;;;;;11.35;7.13;;;;;;;14.47;68.37;100923.78;5489193;26;20009;-80
2024/04/11 06:37:44;;;;;;;10.07;6.53;;;;;;;14.87;65.65;100939.44;5489161;26;20443;-80
2024/04/11 06:40:12;;;;;;;8.93;6.20;;;;;;;15.20;65.68;100957.00;5489353;26;19998;-79
2024/04/11 06:42:46;;;;;;;10.63;6.45;;;;;;;15.21;64.71;100945.22;5484746;26;20331;-79
2024/04/11 06:45:23;;;;;;;9.40;5.70;;;;;;;15.13;63.51;100938.28;5489454;26;20006;-80
2024/04/11 06:47:49;;;;;;;12.20;6.28;;;;;;;15.20;64.27;100939.03;5489280;26;20030;-79
2024/04/11 06:50:14;;;;;;;8.98;5.85;;;;;;;15.15;63.59;100920.06;5489684;26;20494;-80
2024/04/11 06:52:42;;;;;;;10.63;6.60;;;;;;;15.67;62.77;100957.13;5488643;26;20002;-80
2024/04/11 06:55:08;;;;;;;8.63;5.55;;;;;;;15.87;60.95;100932.66;5489216;26;20005;-80
2024/04/11 06:57:40;;;;;;;9.23;5.60;;;;;;;15.70;60.40;100972.00;5489136;26;20030;-80
2024/04/11 07:00:14;;;;;;;10.32;5.57;;;;;;;15.90;61.23;100953.72;5488814;26;20013;-80
2024/04/11 07:02:46;;;;;;;10.20;6.00;;;;;;;16.30;59.16;100961.06;5488086;26;20374;-79
2024/04/11 07:05:13;;;;;;;9.13;5.82;;;;;;;16.56;57.57;100980.50;5489134;26;20002;-80
2024/04/11 07:07:41;;;;;;;12.65;5.13;;;;;;;16.60;57.48;100968.19;5489095;26;20006;-80
2024/04/11 07:10:15;;;;;;;12.27;5.65;;;;;;;16.67;59.53;100971.56;5486939;26;19998;-80
2024/04/11 07:12:42;;;;;;;8.77;5.05;;;;;;;17.01;55.50;100987.94;5488207;26;20020;-79
2024/04/11 07:15:10;;;;;;;13.05;8.13;;;;;;;17.20;54.01;100989.41;5488696;26;20529;-80
2024/04/11 07:17:41;;;;;;;49.42;33.53;;;;;;;17.22;54.61;100992.69;5489281;26;20010;-79
2024/04/11 07:20:09;;;;;;;18.33;9.43;;;;;;;17.43;55.69;100993.06;5488632;26;20346;-80
2024/04/11 07:22:44;;;;;;;11.83;5.73;;;;;;;17.91;54.29;100993.63;5488422;26;20404;-80
2024/04/11 07:25:10;;;;;;;10.35;4.90;;;;;;;17.89;52.13;100999.25;5488636;26;20012;-80
2024/04/11 08:06:10;;;;;;;12.43;4.30;;;;;;;19.00;50.83;100986.81;5460993;20;1374311;-79
2024/04/11 08:08:40;;;;;;;6.50;4.28;;;;;;;20.01;47.64;101021.38;5450131;26;20007;-79
2024/04/11 08:11:06;;;;;;;6.90;4.20;;;;;;;20.09;42.41;101038.25;5431734;26;20027;-79
2024/04/11 08:13:35;;;;;;;9.07;4.68;;;;;;;20.45;44.63;101026.59;5432065;26;20071;-79
2024/04/11 08:16:00;;;;;;;10.38;4.60;;;;;;;20.80;41.38;101030.63;5432569;26;20003;-79
2024/04/11 08:18:29;;;;;;;7.82;4.55;;;;;;;20.85;41.28;101006.22;5468050;26;20010;-79
2024/04/11 08:20:56;;;;;;;11.32;4.38;;;;;;;20.80;42.26;101006.22;5467520;26;20411;-79
2024/04/11 08:23:22;;;;;;;;;;;;;;;21.19;41.25;101030.22;5468205;26;19995;-80
2024/04/11 08:25:52;;;;;;;10.43;4.40;;;;;;;21.33;38.59;101027.84;5467364;26;20417;-79
2024/04/11 08:28:18;;;;;;;13.18;5.00;;;;;;;21.55;40.65;101013.25;5432568;26;20011;-79
2024/04/11 08:30:47;;;;;;;7.78;4.35;;;;;;;21.57;38.12;101030.06;5431378;26;20006;-79
2024/04/11 08:33:14;;;;;;;9.43;4.50;;;;;;;21.39;36.27;101015.06;5431293;26;20003;-79
2024/04/11 08:35:44;;;;;;;7.70;4.68;;;;;;;21.78;34.97;101029.03;5431502;26;19999;-79
2024/04/11 08:38:12;;;;;;;7.47;4.57;;;;;;;21.96;33.57;101033.09;5430980;26;20011;-79
2024/04/11 08:40:42;;;;;;;7.78;4.43;;;;;;;21.73;34.33;101025.47;5429748;26;20088;-79
2024/04/11 08:43:09;;;;;;;8.90;4.32;;;;;;;22.42;36.16;101033.09;5429960;26;20018;-79
2024/04/11 08:45:35;;;;;;;7.40;4.60;;;;;;;22.39;31.39;101044.53;5446927;26;20013;-80
2024/04/11 08:48:03;;;;;;;7.85;4.15;;;;;;;22.32;32.01;101046.69;5459244;26;20451;-79
2024/04/11 08:50:29;;;;;;;;;;;;;;;22.86;33.66;101042.47;5467102;26;19999;-79
2024/04/11 08:52:56;;;;;;;6.93;4.10;;;;;;;22.77;32.42;101028.66;5466498;26;19924;-79
2024/04/11 08:55:22;;;;;;;8.27;4.35;;;;;;;22.15;31.70;101021.66;5466332;26;20005;-79
2024/04/11 08:57:50;;;;;;;11.65;4.43;;;;;;;21.90;33.32;101017.88;5455463;26;20884;-80
2024/04/11 09:00:21;;;;;;;12.30;5.00;;;;;;;21.98;32.33;101025.47;5465954;26;20017;-79
2024/04/11 09:02:48;;;;;;;8.30;4.00;;;;;;;22.36;31.45;101047.78;5466500;26;20454;-79
2024/04/11 09:05:14;;;;;;;9.43;4.68;;;;;;;22.55;32.75;101025.44;5466077;26;20340;-79
2024/04/11 09:07:44;;;;;;;10.15;5.25;;;;;;;22.69;31.58;101025.69;5462304;26;20026;-78
2024/04/11 09:10:12;;;;;;;8.70;4.72;;;;;;;23.08;30.88;101028.56;5466040;26;20002;-80
2024/04/11 09:12:42;;;;;;;8.27;4.53;;;;;;;23.04;31.27;101025.56;5465049;26;20005;-79
2024/04/11 09:15:08;;;;;;;11.38;5.10;;;;;;;22.86;30.20;101032.44;5460254;26;20007;-79
2024/04/11 09:17:38;;;;;;;8.05;5.20;;;;;;;23.03;30.08;101032.13;5447594;26;19999;-79
2024/04/11 09:20:05;;;;;;;9.13;5.97;;;;;;;23.32;31.57;101025.19;5446672;26;20389;-79
2024/04/11 09:22:31;;;;;;;9.60;5.65;;;;;;;23.13;31.72;101025.81;5450350;26;19999;-79
2024/04/11 09:24:57;;;;;;;8.23;4.40;;;;;;;23.50;31.49;101026.41;5445455;26;20002;-79
2024/04/11 09:27:22;;;;;;;8.20;4.93;;;;;;;24.06;29.36;101028.75;5434892;26;20436;-79
2024/04/11 09:29:48;;;;;;;9.00;4.68;;;;;;;24.24;29.69;101035.41;5428336;26;19995;-79
2024/04/11 09:32:21;;;;;;;15.95;4.55;;;;;;;24.00;29.51;101022.53;5448340;26;20022;-78
2024/04/11 09:34:47;;;;;;;8.18;4.53;;;;;;;24.24;27.98;101029.97;5450136;26;20003;-78
2024/04/11 09:37:23;;;;;;;6.47;3.75;;;;;;;24.54;28.36;101022.59;5447269;26;19995;-79
2024/04/11 09:39:56;;;;;;;7.90;4.18;;;;;;;24.31;27.88;101024.97;5442777;26;20341;-79
2024/04/11 09:42:26;;;;;;;8.13;4.70;;;;;;;24.39;28.61;101037.16;5450128;26;19998;-79
2024/04/11 09:44:53;;;;;;;7.50;4.30;;;;;;;24.51;28.34;101045.00;5448153;26;20155;-79
2024/04/11 09:47:31;;;;;;;8.15;4.28;;;;;;;24.20;27.86;101045.25;5444231;26;20003;-79
2024/04/11 09:50:00;;;;;;;9.63;3.83;;;;;;;24.59;28.92;101030.72;5441561;26;20454;-78
2024/04/11 09:52:37;;;;;;;13.48;4.07;;;;;;;24.40;29.60;101039.63;5449671;26;20002;-78
2024/04/11 09:55:04;;;;;;;8.63;4.43;;;;;;;23.96;28.35;101023.41;5450174;26;20018;-78
2024/04/11 09:57:33;;;;;;;12.80;4.00;;;;;;;24.64;29.39;101038.84;5447435;26;20665;-78
2024/04/11 10:00:01;;;;;;;11.00;4.80;;;;;;;24.35;28.28;100995.22;5450274;26;20012;-78
2024/04/11 10:02:28;;;;;;;11.80;4.47;;;;;;;25.34;28.40;101032.00;5450394;26;19998;-79
2024/04/11 10:05:06;;;;;;;8.48;3.83;;;;;;;25.72;28.21;101023.78;5450352;26;20063;-78
2024/04/11 10:07:41;;;;;;;7.07;3.58;;;;;;;25.12;27.42;101016.97;5447311;26;20419;-79
2024/04/11 10:10:27;;;;;;;9.02;3.85;;;;;;;25.22;29.99;101016.88;5450154;26;20014;-78
2024/04/11 10:12:58;;;;;;;9.03;4.10;;;;;;;25.84;26.52;101014.00;5449746;26;20079;-78
2024/04/11 10:15:29;;;;;;;6.03;3.67;;;;;;;25.09;26.18;101001.22;5450129;26;20282;-78
2024/04/11 10:18:10;;;;;;;7.78;3.45;;;;;;;25.33;26.45;101009.34;5446763;26;20070;-77
2024/04/11 10:21:12;;;;;;;7.10;3.70;;;;;;;25.07;26.08;101011.59;5450220;26;20014;-79
2024/04/11 10:23:38;;;;;;;8.57;4.13;;;;;;;26.12;26.44;101018.78;5450020;26;20010;-78
2024/04/11 10:26:06;;;;;;;7.50;3.50;;;;;;;26.18;26.47;101010.19;5449843;26;20464;-79
2024/04/11 10:28:41;;;;;;;10.77;4.35;;;;;;;26.04;26.36;100996.50;5444156;26;19999;-78
2024/04/11 10:31:11;;;;;;;7.50;4.00;;;;;;;25.99;28.26;101002.06;5449910;26;20038;-79
2024/04/11 10:33:47;;;;;;;8.00;3.88;;;;;;;26.50;26.17;101011.25;5450038;26;20007;-79
2024/04/11 10:36:17;;;;;;;7.30;3.55;;;;;;;26.51;24.96;101003.84;5449729;26;19995;-79
2024/04/11 10:38:43;;;;;;;9.43;3.97;;;;;;;26.50;25.87;100991.28;5447390;26;20003;-79
2024/04/11 10:41:08;;;;;;;6.38;3.65;;;;;;;26.12;27.27;100994.19;5449329;26;19999;-79
2024/04/11 10:43:36;;;;;;;11.30;4.20;;;;;;;26.08;27.76;100998.63;5449906;26;20022;-79
2024/04/11 10:46:05;;;;;;;7.07;3.50;;;;;;;26.01;26.46;100999.84;5449383;26;20031;-79
2024/04/11 10:48:31;;;;;;;11.13;4.80;;;;;;;26.03;27.42;100980.38;5445679;26;20002;-79
2024/04/11 10:51:00;;;;;;;7.10;3.30;;;;;;;26.52;26.40;100980.84;5413913;26;20015;-79
2024/04/11 10:53:25;;;;;;;8.50;3.75;;;;;;;26.92;25.22;101001.13;5415597;26;20436;-79
2024/04/11 10:55:55;;;;;;;11.75;3.58;;;;;;;26.68;25.58;100979.44;5430288;26;19991;-79
2024/04/11 10:58:28;;;;;;;6.55;3.50;;;;;;;26.90;26.01;100986.94;5426607;26;20450;-79
2024/04/11 11:03:46;;;;;;;7.25;3.47;;;;;;;26.78;25.03;100981.97;5413411;26;20011;-79
2024/04/11 11:06:34;;;;;;;8.95;3.88;;;;;;;27.69;24.23;100972.00;5413313;26;20010;-80
2024/04/11 11:09:14;;;;;;;6.22;3.75;;;;;;;27.69;24.67;100996.66;5442530;26;20014;-79
2024/04/11 11:11:44;;;;;;;8.38;3.83;;;;;;;27.24;24.08;100975.53;5449044;26;19995;-79
2024/04/11 11:14:14;;;;;;;9.98;3.70;;;;;;;27.65;24.30;100988.25;5448673;26;19999;-79
2024/04/11 11:16:43;;;;;;;8.18;3.42;;;;;;;26.74;25.71;100955.53;5449007;26;20093;-77
2024/04/11 11:19:12;;;;;;;7.05;4.25;;;;;;;27.08;26.09;100948.78;5446564;26;19999;-78
2024/04/11 11:21:40;;;;;;;7.60;4.40;;;;;;;27.15;25.25;100977.34;5449064;26;20078;-77
2024/04/11 11:24:06;;;;;;;8.25;3.80;;;;;;;27.72;24.51;100968.63;5449012;26;20500;-78
2024/04/11 11:26:36;;;;;;;8.57;3.72;;;;;;;27.85;22.46;100969.69;5448844;26;20002;-78
2024/04/11 11:29:06;;;;;;;8.45;3.88;;;;;;;28.12;22.11;100965.19;5420146;26;20023;-78
2024/04/11 11:31:36;;;;;;;8.93;4.03;;;;;;;28.61;24.01;100971.53;5412893;26;20003;-77
2024/04/11 11:34:09;;;;;;;5.78;3.10;;;;;;;28.34;22.06;100948.66;5410726;26;20004;-78
2024/04/11 11:36:38;;;;;;;13.57;3.88;;;;;;;27.81;22.62;100969.50;5412745;26;20004;-78
2024/04/11 11:39:04;;;;;;;17.27;4.63;;;;;;;27.96;23.02;100973.00;5412417;26;20015;-78
2024/04/11 11:41:37;;;;;;;7.70;3.63;;;;;;;28.19;22.96;100968.25;5410997;26;19996;-78
2024/04/11 11:44:04;;;;;;;6.47;3.40;;;;;;;28.69;21.93;100957.00;5412719;26;20003;-78
2024/04/11 11:46:37;;;;;;;7.95;3.33;;;;;;;28.57;22.33;100949.38;5412688;26;19999;-77
2024/04/11 11:49:04;;;;;;;6.25;3.38;;;;;;;28.59;22.80;100944.38;5437684;26;20006;-78
2024/04/11 11:51:29;;;;;;;8.23;3.58;;;;;;;29.29;21.80;100941.72;5444428;26;20096;-78
2024/04/11 11:54:00;;;;;;;5.88;3.42;;;;;;;29.80;21.89;100942.00;5448375;26;20503;-78
2024/04/11 11:56:32;;;;;;;7.85;3.40;;;;;;;28.98;21.92;100928.16;5448556;26;20010;-78
2024/04/11 11:59:02;;;;;;;6.38;3.10;;;;;;;29.30;22.78;100910.41;5444200;26;19995;-76
2024/04/11 12:01:31;;;;;;;10.07;3.67;;;;;;;29.25;23.50;100927.81;5448352;26;20017;-78
2024/04/11 12:03:57;;;;;;;8.18;3.53;;;;;;;28.90;23.54;100907.78;5448191;26;20039;-77
2024/04/11 12:06:23;;;;;;;8.10;3.72;;;;;;;29.13;22.35;100927.69;5448205;26;20320;-77
2024/04/11 12:08:49;;;;;;;9.98;4.30;;;;;;;29.00;23.25;100914.91;5445614;26;20081;-76